San Jose, CA (95101)

7:32 PM PDT on August 04, 2015 (GMT -0700)
North San Jose / 680 & Hostetter | | Change Station
CLOSE
Current Station
Personal Weather Station
Location: San Jose, CA
Elevation: 85 ft
Nearby Weather Stations

Elev 85 ft 37.39 °N, 121.88 °W | Updated 37 seconds ago

Mostly Cloudy
Mostly Cloudy
71.7 °F
Feels Like 76 °F
N
3.0
Wind Variable Wind from WSW
Gusts 6.0 mph

Today
High -- | Low -- °F
--% Chance of Precip.
Yesterday
High -- | Low -- °F
Precip. -- in
6:14 AM 8:12 PM
Waning Gibbous, 72% visible
Pressure 29.96 in
Visibility 10.0 miles
Clouds Few 2300 ft
Mostly Cloudy 14000 ft
Heat Index 76 °F
Dew Point 57 °F
Humidity 59%
Rainfall 0.00 in
Snow Depth Not available.
UV 0 out of 12
Pollen 4.90 out of 12
Air Quality Not available.
Flu Activity Not available.
METAR KSJC 050153Z 31014KT 10SM FEW023 BKN140 22/12 A2996 RMK AO2 SLP145 T02220122

More Conditions Fewer Conditions

Pressure 29.96 in
Visibility 10.0 miles
Clouds Few 2300 ft
Mostly Cloudy 14000 ft
Heat Index 76 °F
Dew Point 57 °F
Humidity 59%
Rainfall 0.00 in
Snow Depth Not available.
UV 0 out of 12
Pollen 4.90 out of 12
Air Quality Not available.
Flu Activity Not available.
METAR KSJC 050153Z 31014KT 10SM FEW023 BKN140 22/12 A2996 RMK AO2 SLP145 T02220122

More Conditions Fewer Conditions

10-Day Weather Forecast

×

Almanac

Astronomy

Aug. 04, 2015 Rise Set
Actual Time
Civil Twilight
Nautical Twilight
Astronomical Twilight
Moon
Length of Visible Light
Length of Day
Tomorrow will be .
, % of the Moon is Illuminated

Today's Extremes

State Highs State Lows

Community

WunderPhotos

Upload Photos

1,844,087 photos uploaded!

WunderBlogs® & News

Nearby

Air Quality

  Air Quality AQ Index Pollutant
Not available.

Snow Depth

Station Depth Elevation

Earthquake Activity

City Distance Mag. Time & Date
Minimum magnitude displayed is 2.5.

Coastal Water Temperatures

Place Temperature

Stations

Nearby Weather Stations

Station Location Temp. Windchill Dew Point Humidity Wind Precip. Elev Updated Type